GCLA Información de aeropuertos

Información de pistas
Pista 01 Longitud 7218 ft Ancho 148 ft
Elevación 103 ft Umbral 0 ft Rumbo 359
Pista 19 Longitud 7218 ft Ancho 148 ft
Elevación 65 ft Umbral 0 ft Rumbo 179
Frecuencias
Tipo APP Nombre CANARIAS A Frequencia 126.1 MHZ
Tipo ATIS Nombre INFO Frequencia 118.6 MHZ
Tipo GND Nombre GND Frequencia 121.8 MHZ
Tipo TWR Nombre TWR Frequencia 118.9 MHZ
Radioayudas
Tipo DME Nombre La Palma Frequencia 112400 KHZ
Tipo NDB Nombre La Palma Frequencia 389 KHZ
Información meteorológica y NOTAM
ADDS - METARS form results

(1841 UTC 23 September 2020)
Data provider http://aviationweather.gov/metar/data/
 
METAR text: GCLA 231830Z 10002KT CAVOK 27/17 Q1014
Conditions at: GCLA (LA PALMA AIRPORT, ES) observed 1830 UTC 23 September 2020
Temperature: 27.0°C (81°F)
Dewpoint: 17.0°C (63°F) [RH = 54%]
Pressure (altimeter): 29.94 inches Hg (1014.0 mb)
Winds: from the E (100 degrees) at 2 MPH (2 knots; 1.0 m/s)
Visibility: 6 or more miles (10+ km)
Ceiling: ceiling and visibility are OK
Clouds: unknown
Weather: no significant weather observed at this time

METAR text: GCLA 231800Z 00000KT CAVOK 28/16 Q1014
Conditions at: GCLA (LA PALMA AIRPORT, ES) observed 1800 UTC 23 September 2020
Temperature: 28.0°C (82°F)
Dewpoint: 16.0°C (61°F) [RH = 48%]
Pressure (altimeter): 29.94 inches Hg (1014.0 mb)
Winds: calm
Visibility: 6 or more miles (10+ km)
Ceiling: ceiling and visibility are OK
Clouds: unknown
Weather: no significant weather observed at this time

Forecast for: GCLA (LA PALMA AIRPORT, ES)
Text: TAF GCLA 231400Z 2315/2415 VRB05KT 9999 FEW025 TX27/2414Z TN22/2406Z
Forecast period: 1500 UTC 23 September 2020 to 1500 UTC 24 September 2020
Forecast type: FROM: standard forecast or significant change
Winds: variable direction winds at 6 MPH (5 knots; 2.6 m/s)
Visibility: 6 or more miles (10+ km)
Ceiling: at least 12,000 feet AGL
Clouds: few clouds at 2500 feet AGL
Weather: no significant weather forecast for this period